Time;durP1;ratioP1;P1;durP2;ratioP2;P2;SDS_P1;SDS_P2;PMS_P1;PMS_P2;Temp;Humidity;BMP_temperature;BMP_pressure;BME280_temperature;BME280_humidity;BME280_pressure;Samples;Min_cycle;Max_cycle;Signal;HPM_P1;HPM_P2
2023/02/20 00:00:27;;;;;;;2.25;0.73;;;;;;;;;;4954044;29;20036;-46
2023/02/20 00:02:53;;;;;;;2.90;0.93;;;;;;;;;;4954149;29;20067;-49
2023/02/20 00:05:20;;;;;;;1.05;0.65;;;;;;;;;;4953486;29;20047;-48
2023/02/20 00:07:46;;;;;;;2.28;0.80;;;;;;;;;;4953880;29;20032;-49
2023/02/20 00:10:12;;;;;;;1.38;0.75;;;;;;;;;;4946198;28;20032;-46
2023/02/20 00:12:39;;;;;;;3.22;1.10;;;;;;;;;;4952224;28;20122;-47
2023/02/20 00:15:05;;;;;;;2.60;0.80;;;;;;;;;;4961624;28;20024;-49
2023/02/20 00:17:31;;;;;;;1.35;0.63;;;;;;;;;;4956953;28;20019;-50
2023/02/20 00:19:57;;;;;;;1.20;0.60;;;;;;;;;;4953495;28;20385;-51
2023/02/20 00:22:24;;;;;;;0.98;0.63;;;;;;;;;;4954087;28;20030;-47
2023/02/20 00:24:50;;;;;;;1.80;1.02;;;;;;;;;;4958447;28;20082;-49
2023/02/20 00:27:16;;;;;;;1.55;0.73;;;;;;;;;;4954451;28;20032;-50
2023/02/20 00:29:44;;;;;;;1.58;0.90;;;;;;;;;;4958225;28;20031;-50
2023/02/20 00:32:10;;;;;;;1.35;0.70;;;;;;;;;;4953347;28;20384;-50
2023/02/20 00:34:36;;;;;;;2.45;0.90;;;;;;;;;;4955470;28;20122;-50
2023/02/20 00:37:02;;;;;;;2.05;0.68;;;;;;;;;;4953862;28;20361;-50
2023/02/20 00:39:28;;;;;;;1.40;0.70;;;;;;;;;;4960227;28;20031;-49
2023/02/20 00:41:56;;;;;;;2.05;1.15;;;;;;;;;;4955496;28;20111;-50
2023/02/20 00:44:22;;;;;;;1.25;0.50;;;;;;;;;;4960623;28;20029;-47
2023/02/20 00:46:48;;;;;;;0.95;0.68;;;;;;;;;;4962762;28;20384;-49
2023/02/20 00:49:14;;;;;;;1.77;0.82;;;;;;;;;;4953379;28;20039;-50
2023/02/20 00:51:40;;;;;;;2.00;0.90;;;;;;;;;;4953062;28;20039;-46
2023/02/20 00:54:06;;;;;;;1.65;0.90;;;;;;;;;;4957182;28;20073;-52
2023/02/20 00:56:31;;;;;;;3.00;0.80;;;;;;;;;;4968060;28;20023;-51
2023/02/20 00:58:57;;;;;;;1.67;0.50;;;;;;;;;;4957361;28;20038;-47
2023/02/20 01:01:23;;;;;;;0.60;0.50;;;;;;;;;;4952439;28;20106;-48
2023/02/20 01:03:49;;;;;;;2.03;0.65;;;;;;;;;;4957746;28;20392;-50
2023/02/20 01:06:16;;;;;;;1.70;0.70;;;;;;;;;;4956289;28;20023;-52
2023/02/20 01:08:42;;;;;;;1.02;0.52;;;;;;;;;;4952896;28;20026;-48
2023/02/20 01:11:08;;;;;;;2.03;1.05;;;;;;;;;;4956760;28;20383;-48
2023/02/20 01:13:34;;;;;;;1.80;0.75;;;;;;;;;;4968039;28;20051;-47
2023/02/20 01:15:59;;;;;;;1.50;0.90;;;;;;;;;;4971510;28;20038;-46
2023/02/20 01:18:26;;;;;;;2.65;0.60;;;;;;;;;;4973168;28;20038;-46
2023/02/20 01:20:52;;;;;;;1.40;0.70;;;;;;;;;;4971038;28;20034;-46
2023/02/20 01:23:18;;;;;;;2.20;0.80;;;;;;;;;;4972993;28;20371;-48
2023/02/20 01:25:44;;;;;;;1.33;0.60;;;;;;;;;;4971361;28;20023;-47
2023/02/20 01:28:10;;;;;;;1.55;0.80;;;;;;;;;;4960511;28;20476;-47
2023/02/20 01:30:35;;;;;;;1.00;0.57;;;;;;;;;;4970319;28;20038;-47
2023/02/20 01:33:02;;;;;;;1.23;0.77;;;;;;;;;;4972074;28;20061;-47
2023/02/20 01:35:30;;;;;;;2.45;0.75;;;;;;;;;;4971904;28;20045;-46
2023/02/20 01:37:56;;;;;;;1.50;0.50;;;;;;;;;;4971509;28;20027;-46
2023/02/20 01:40:23;;;;;;;1.20;0.60;;;;;;;;;;4971397;28;20114;-47
2023/02/20 01:42:49;;;;;;;1.35;0.73;;;;;;;;;;4971599;28;20023;-47
2023/02/20 01:45:21;;;;;;;2.22;0.80;;;;;;;;;;4964493;28;20866;-49
2023/02/20 01:47:47;;;;;;;1.30;0.68;;;;;;;;;;4968526;28;20424;-47
2023/02/20 01:50:14;;;;;;;1.42;0.50;;;;;;;;;;4955097;28;20118;-47
2023/02/20 01:52:40;;;;;;;1.55;0.77;;;;;;;;;;4971552;28;20023;-47
2023/02/20 01:55:16;;;;;;;1.55;0.98;;;;;;;;;;4971439;28;20543;-47
2023/02/20 01:57:44;;;;;;;2.15;0.70;;;;;;;;;;4970416;28;20457;-46
2023/02/20 02:00:13;;;;;;;1.20;0.50;;;;;;;;;;4971695;28;20026;-46
2023/02/20 02:02:41;;;;;;;0.65;0.50;;;;;;;;;;4967211;28;20368;-47
2023/02/20 02:05:09;;;;;;;1.10;0.70;;;;;;;;;;4964222;28;20119;-47
2023/02/20 02:07:35;;;;;;;1.13;0.70;;;;;;;;;;4971586;28;20431;-50
2023/02/20 02:10:09;;;;;;;2.22;0.93;;;;;;;;;;4969550;28;20547;-48
2023/02/20 02:12:36;;;;;;;2.90;0.75;;;;;;;;;;4964952;28;20424;-48
2023/02/20 02:15:02;;;;;;;1.17;0.65;;;;;;;;;;4959480;28;20126;-47
2023/02/20 02:17:28;;;;;;;4.50;1.73;;;;;;;;;;4960248;28;20419;-47
2023/02/20 02:20:12;;;;;;;2.05;0.85;;;;;;;;;;4956738;28;20043;-48
2023/02/20 02:22:57;;;;;;;1.48;0.60;;;;;;;;;;4955915;28;20413;-44
2023/02/20 02:25:31;;;;;;;1.58;0.60;;;;;;;;;;4953940;28;20425;-47
2023/02/20 02:28:00;;;;;;;2.55;0.80;;;;;;;;;;4959481;28;20802;-47
2023/02/20 02:30:45;;;;;;;1.25;0.95;;;;;;;;;;4967895;28;20030;-46
2023/02/20 02:33:20;;;;;;;0.65;0.52;;;;;;;;;;4956358;28;20178;-48
2023/02/20 02:35:49;;;;;;;1.95;0.68;;;;;;;;;;4955425;28;20038;-48
2023/02/20 02:38:21;;;;;;;2.28;0.90;;;;;;;;;;4970781;28;20033;-48
2023/02/20 02:40:51;;;;;;;1.42;1.00;;;;;;;;;;4960420;28;20019;-49
2023/02/20 02:43:36;;;;;;;1.15;0.70;;;;;;;;;;4959928;28;20027;-46
2023/02/20 02:46:21;;;;;;;1.05;0.63;;;;;;;;;;4961442;28;20023;-46
2023/02/20 02:48:49;;;;;;;1.40;1.17;;;;;;;;;;4954733;28;20039;-48
2023/02/20 02:51:20;;;;;;;2.90;0.68;;;;;;;;;;4960530;28;20027;-47
2023/02/20 02:54:05;;;;;;;1.73;1.05;;;;;;;;;;4954541;28;20381;-50
2023/02/20 02:56:35;;;;;;;0.80;0.60;;;;;;;;;;4956024;28;20129;-48
2023/02/20 02:59:01;;;;;;;2.70;0.98;;;;;;;;;;4952866;28;20058;-47
2023/02/20 03:01:28;;;;;;;2.28;0.60;;;;;;;;;;4963045;28;20094;-50
2023/02/20 03:03:54;;;;;;;2.08;0.70;;;;;;;;;;4957760;28;20027;-47
2023/02/20 03:06:28;;;;;;;2.25;1.17;;;;;;;;;;4960546;28;20031;-48
2023/02/20 03:09:14;;;;;;;1.80;0.75;;;;;;;;;;4954970;29;20042;-50
2023/02/20 03:11:41;;;;;;;1.77;0.70;;;;;;;;;;4955625;29;20390;-46
2023/02/20 03:17:00;;;;;;;2.05;0.60;;;;;;;;;;4974408;28;20494;-47
2023/02/20 03:19:29;;;;;;;1.30;0.70;;;;;;;;;;4970293;28;20041;-46
2023/02/20 03:21:56;;;;;;;1.23;0.52;;;;;;;;;;4969262;28;20037;-46
2023/02/20 03:24:23;;;;;;;1.10;0.60;;;;;;;;;;4973914;28;20380;-46
2023/02/20 03:26:50;;;;;;;1.90;0.50;;;;;;;;;;4973736;28;20042;-46
2023/02/20 03:29:26;;;;;;;2.03;0.70;;;;;;;;;;4974412;28;20113;-46
2023/02/20 03:43:24;;;;;;;1.63;0.50;;;;;;;;;;4974469;28;20545;-46
2023/02/20 03:46:05;;;;;;;1.05;0.55;;;;;;;;;;4972579;28;20059;-47
2023/02/20 03:48:39;;;;;;;1.15;0.63;;;;;;;;;;4973780;28;20049;-47
2023/02/20 03:53:50;;;;;;;2.47;0.60;;;;;;;;;;4960797;28;23045;-47
2023/02/20 03:56:21;;;;;;;2.35;1.33;;;;;;;;;;4974235;28;20035;-46
2023/02/20 03:58:51;;;;;;;1.95;0.70;;;;;;;;;;4972960;28;20030;-47
2023/02/20 04:01:17;;;;;;;1.00;0.50;;;;;;;;;;4973365;28;20031;-47
2023/02/20 04:03:45;;;;;;;1.85;0.63;;;;;;;;;;4971875;28;20023;-47
2023/02/20 04:06:12;;;;;;;4.18;1.40;;;;;;;;;;4973992;28;20118;-46
2023/02/20 04:08:54;;;;;;;1.48;0.60;;;;;;;;;;4973061;28;20472;-46
2023/02/20 04:11:30;;;;;;;1.17;0.65;;;;;;;;;;4963309;28;20026;-46
2023/02/20 04:13:56;;;;;;;1.73;0.80;;;;;;;;;;4971976;28;20059;-48
2023/02/20 04:16:23;;;;;;;1.40;0.70;;;;;;;;;;4973276;28;20468;-47
2023/02/20 04:18:49;;;;;;;0.90;0.50;;;;;;;;;;4972481;28;20033;-46
2023/02/20 04:21:20;;;;;;;2.42;0.70;;;;;;;;;;4972198;28;20038;-46
2023/02/20 04:23:48;;;;;;;0.93;0.43;;;;;;;;;;4972475;28;20039;-47
2023/02/20 04:26:16;;;;;;;1.50;0.63;;;;;;;;;;4962928;28;20023;-48
2023/02/20 04:28:42;;;;;;;2.90;0.90;;;;;;;;;;4969511;28;20109;-51
2023/02/20 04:31:10;;;;;;;1.13;0.60;;;;;;;;;;4973536;28;20019;-48
2023/02/20 04:33:36;;;;;;;0.75;0.73;;;;;;;;;;4971287;28;20027;-49
2023/02/20 04:36:02;;;;;;;1.08;0.60;;;;;;;;;;4971361;28;20034;-48
2023/02/20 04:38:28;;;;;;;1.30;0.70;;;;;;;;;;4972727;28;20038;-50
2023/02/20 04:40:54;;;;;;;1.58;0.55;;;;;;;;;;4971432;28;20019;-49
2023/02/20 04:43:20;;;;;;;1.10;0.50;;;;;;;;;;4972908;28;20046;-48
2023/02/20 04:45:46;;;;;;;1.02;0.70;;;;;;;;;;4971754;28;20015;-47
2023/02/20 04:48:12;;;;;;;1.05;0.60;;;;;;;;;;4971936;28;20033;-50
2023/02/20 04:50:40;;;;;;;1.60;0.50;;;;;;;;;;4972064;28;20074;-52
2023/02/20 04:53:06;;;;;;;1.67;0.70;;;;;;;;;;4972236;28;20042;-52
2023/02/20 04:55:32;;;;;;;0.70;0.55;;;;;;;;;;4972072;28;20025;-49
2023/02/20 04:57:58;;;;;;;1.13;0.60;;;;;;;;;;4971675;28;20026;-47
2023/02/20 05:00:25;;;;;;;0.60;0.45;;;;;;;;;;4971271;28;20111;-48
2023/02/20 05:02:52;;;;;;;0.52;0.43;;;;;;;;;;4971622;28;20077;-47
2023/02/20 05:05:19;;;;;;;1.83;1.17;;;;;;;;;;4971869;28;20015;-48
2023/02/20 05:07:45;;;;;;;2.55;0.70;;;;;;;;;;4971904;28;20023;-47
2023/02/20 05:10:15;;;;;;;2.10;0.57;;;;;;;;;;4971991;28;20031;-46
2023/02/20 05:12:41;;;;;;;1.45;0.85;;;;;;;;;;4963222;28;20051;-45
2023/02/20 05:15:07;;;;;;;1.40;0.60;;;;;;;;;;4956108;28;20085;-49
2023/02/20 05:17:33;;;;;;;1.08;0.70;;;;;;;;;;4966577;28;20026;-48
2023/02/20 05:19:59;;;;;;;1.83;0.80;;;;;;;;;;4955855;28;20293;-48
2023/02/20 05:22:25;;;;;;;1.30;0.55;;;;;;;;;;4951386;28;20023;-46
2023/02/20 05:24:51;;;;;;;1.02;0.45;;;;;;;;;;4962325;28;20031;-51
2023/02/20 05:27:19;;;;;;;0.90;0.57;;;;;;;;;;4961258;28;20027;-46
2023/02/20 05:29:45;;;;;;;1.92;0.60;;;;;;;;;;4951897;29;20062;-47
2023/02/20 05:32:11;;;;;;;0.75;0.60;;;;;;;;;;4953375;29;20034;-47
2023/02/20 05:34:37;;;;;;;1.52;0.50;;;;;;;;;;4952884;29;20110;-47
2023/02/20 05:37:03;;;;;;;1.02;0.70;;;;;;;;;;4952097;29;20106;-46
2023/02/20 05:39:29;;;;;;;1.40;0.60;;;;;;;;;;4952928;29;20038;-49
2023/02/20 05:41:56;;;;;;;1.58;0.60;;;;;;;;;;4952672;29;20035;-46
2023/02/20 05:44:21;;;;;;;1.05;0.50;;;;;;;;;;4946937;28;20028;-48
2023/02/20 05:46:47;;;;;;;0.90;0.60;;;;;;;;;;4952603;29;20027;-47
2023/02/20 05:49:13;;;;;;;2.42;0.68;;;;;;;;;;4955268;28;20539;-47
2023/02/20 05:51:39;;;;;;;0.80;0.70;;;;;;;;;;4956604;29;20042;-46
2023/02/20 05:54:05;;;;;;;1.25;0.60;;;;;;;;;;4955554;29;20035;-46
2023/02/20 05:56:31;;;;;;;1.40;0.60;;;;;;;;;;4956958;29;20424;-47
2023/02/20 05:58:58;;;;;;;1.45;0.70;;;;;;;;;;4956025;29;20031;-47
2023/02/20 06:01:25;;;;;;;2.40;0.68;;;;;;;;;;4956801;28;20030;-47
2023/02/20 06:03:52;;;;;;;1.45;0.70;;;;;;;;;;4948184;29;20031;-48
2023/02/20 06:06:18;;;;;;;1.63;0.57;;;;;;;;;;4957058;29;20078;-53
2023/02/20 06:08:44;;;;;;;1.48;0.55;;;;;;;;;;4937896;28;20456;-48
2023/02/20 06:11:11;;;;;;;1.27;0.60;;;;;;;;;;4951636;28;20432;-50
2023/02/20 06:13:41;;;;;;;1.65;0.75;;;;;;;;;;4955487;28;20047;-49
2023/02/20 06:16:08;;;;;;;0.77;0.45;;;;;;;;;;4955924;28;20106;-49
2023/02/20 06:18:33;;;;;;;1.08;0.60;;;;;;;;;;4952256;28;20050;-52
2023/02/20 06:20:59;;;;;;;1.52;0.63;;;;;;;;;;4954617;28;20024;-48
2023/02/20 06:23:25;;;;;;;0.65;0.47;;;;;;;;;;4954193;28;20089;-50
2023/02/20 06:25:51;;;;;;;1.05;0.47;;;;;;;;;;4956423;28;20042;-49
2023/02/20 06:28:17;;;;;;;0.90;0.45;;;;;;;;;;4954069;28;20042;-49
2023/02/20 06:30:43;;;;;;;1.88;0.50;;;;;;;;;;4946602;28;20537;-49
2023/02/20 06:33:09;;;;;;;1.23;0.60;;;;;;;;;;4948066;28;20058;-49
2023/02/20 06:35:35;;;;;;;1.33;0.80;;;;;;;;;;4955925;28;20027;-50
2023/02/20 06:38:01;;;;;;;1.35;0.50;;;;;;;;;;4950512;28;20036;-48
2023/02/20 06:40:27;;;;;;;2.47;0.70;;;;;;;;;;4956301;28;20396;-52
2023/02/20 06:42:53;;;;;;;1.35;0.60;;;;;;;;;;4953016;28;20106;-49
2023/02/20 06:45:19;;;;;;;1.63;0.60;;;;;;;;;;4953966;28;20027;-47
2023/02/20 06:47:45;;;;;;;1.67;1.02;;;;;;;;;;4953751;28;20121;-48
2023/02/20 06:50:11;;;;;;;1.90;1.42;;;;;;;;;;4955387;28;20047;-48
2023/02/20 06:52:37;;;;;;;1.38;0.80;;;;;;;;;;4953041;28;20055;-50
2023/02/20 06:55:03;;;;;;;2.40;0.65;;;;;;;;;;4951359;28;20933;-51
2023/02/20 06:57:31;;;;;;;1.27;0.60;;;;;;;;;;4954367;28;20027;-50
2023/02/20 06:59:57;;;;;;;3.38;1.00;;;;;;;;;;4954290;28;20504;-50
2023/02/20 07:02:23;;;;;;;1.10;0.55;;;;;;;;;;4954534;29;20087;-52
2023/02/20 07:04:49;;;;;;;1.40;0.73;;;;;;;;;;4954570;29;20027;-46
2023/02/20 07:07:15;;;;;;;3.53;0.60;;;;;;;;;;4943381;29;20128;-46
2023/02/20 07:09:41;;;;;;;1.88;0.60;;;;;;;;;;4954428;28;20043;-45
2023/02/20 07:12:07;;;;;;;3.60;0.80;;;;;;;;;;4955671;28;20391;-46
2023/02/20 07:14:33;;;;;;;2.45;1.10;;;;;;;;;;4959839;28;20034;-46
2023/02/20 07:16:59;;;;;;;1.38;0.80;;;;;;;;;;4944934;28;20023;-47
2023/02/20 07:19:25;;;;;;;1.60;0.60;;;;;;;;;;4952788;28;20035;-46
2023/02/20 07:21:51;;;;;;;1.73;0.75;;;;;;;;;;4959828;28;20030;-46
2023/02/20 07:24:17;;;;;;;5.18;0.70;;;;;;;;;;4973343;28;20031;-47
2023/02/20 07:26:43;;;;;;;2.58;0.80;;;;;;;;;;4957330;28;20037;-45
2023/02/20 07:29:12;;;;;;;1.50;0.55;;;;;;;;;;4954127;28;20049;-44
2023/02/20 07:31:38;;;;;;;1.58;0.95;;;;;;;;;;4953537;28;20031;-46
2023/02/20 07:34:04;;;;;;;2.60;1.20;;;;;;;;;;4953557;28;20054;-45
2023/02/20 07:36:30;;;;;;;1.77;0.52;;;;;;;;;;4950544;28;20082;-46
2023/02/20 07:38:57;;;;;;;2.05;1.10;;;;;;;;;;4947764;28;20045;-46
2023/02/20 07:41:28;;;;;;;4.32;0.75;;;;;;;;;;4957505;28;20031;-46
2023/02/20 07:43:54;;;;;;;3.13;0.70;;;;;;;;;;4953918;28;20123;-46
2023/02/20 07:46:20;;;;;;;1.42;0.90;;;;;;;;;;4959730;28;20045;-48
2023/02/20 07:48:46;;;;;;;3.15;1.05;;;;;;;;;;4954633;28;20039;-46
2023/02/20 07:51:12;;;;;;;1.95;0.60;;;;;;;;;;4957905;28;20077;-45
2023/02/20 07:53:38;;;;;;;1.80;0.90;;;;;;;;;;4955244;28;20023;-47
2023/02/20 07:56:04;;;;;;;4.40;1.30;;;;;;;;;;4959378;28;20027;-50
2023/02/20 07:58:30;;;;;;;7.25;1.10;;;;;;;;;;4953694;28;20082;-48
2023/02/20 08:00:56;;;;;;;2.15;1.00;;;;;;;;;;4959048;28;20060;-47
2023/02/20 08:03:22;;;;;;;2.22;0.82;;;;;;;;;;4961640;28;20024;-48
2023/02/20 08:05:48;;;;;;;1.33;0.82;;;;;;;;;;4957615;28;20375;-47
2023/02/20 08:08:14;;;;;;;4.07;0.95;;;;;;;;;;4953398;28;20034;-47
2023/02/20 08:10:42;;;;;;;2.92;0.90;;;;;;;;;;4955331;28;20019;-48
2023/02/20 08:13:08;;;;;;;4.15;0.98;;;;;;;;;;4954837;28;20062;-47
2023/02/20 08:15:34;;;;;;;4.32;0.77;;;;;;;;;;4955398;28;20024;-47
2023/02/20 08:18:00;;;;;;;2.42;0.70;;;;;;;;;;4958159;28;20654;-47
2023/02/20 08:20:27;;;;;;;2.15;0.80;;;;;;;;;;4958879;28;20019;-48
2023/02/20 08:22:53;;;;;;;1.70;0.70;;;;;;;;;;4955300;28;20031;-47
2023/02/20 08:25:19;;;;;;;1.88;1.35;;;;;;;;;;4954873;28;20043;-46
2023/02/20 08:27:46;;;;;;;1.92;0.75;;;;;;;;;;4952991;28;20476;-47
2023/02/20 08:30:14;;;;;;;4.38;1.05;;;;;;;;;;4966553;28;20484;-47
2023/02/20 08:32:40;;;;;;;2.13;0.70;;;;;;;;;;4951413;28;20078;-45
2023/02/20 08:35:06;;;;;;;1.85;0.88;;;;;;;;;;4956827;28;20027;-46
2023/02/20 08:37:32;;;;;;;2.45;0.80;;;;;;;;;;4955875;28;20039;-46
2023/02/20 08:39:58;;;;;;;2.13;0.80;;;;;;;;;;4955101;28;20062;-45
2023/02/20 08:42:24;;;;;;;0.80;0.70;;;;;;;;;;4956513;28;20063;-46
2023/02/20 08:44:50;;;;;;;4.22;1.52;;;;;;;;;;4953507;28;20383;-46
2023/02/20 08:47:18;;;;;;;3.05;0.82;;;;;;;;;;4953779;28;20106;-48
2023/02/20 08:49:46;;;;;;;3.17;0.93;;;;;;;;;;4956938;28;20440;-48
2023/02/20 08:52:12;;;;;;;2.67;0.60;;;;;;;;;;4953126;28;20027;-47
2023/02/20 08:54:38;;;;;;;3.90;1.15;;;;;;;;;;4954526;28;20082;-47
2023/02/20 08:57:04;;;;;;;2.17;0.77;;;;;;;;;;4962829;28;20102;-48
2023/02/20 08:59:33;;;;;;;1.67;0.70;;;;;;;;;;4957650;28;20031;-48
2023/02/20 09:01:59;;;;;;;0.80;0.55;;;;;;;;;;4951718;28;20023;-49
2023/02/20 09:04:25;;;;;;;1.35;0.50;;;;;;;;;;4957757;28;20110;-47
2023/02/20 09:06:51;;;;;;;1.85;0.57;;;;;;;;;;4965707;28;20077;-47
2023/02/20 09:09:17;;;;;;;2.08;0.75;;;;;;;;;;4966586;28;20023;-47
2023/02/20 09:11:43;;;;;;;1.77;0.73;;;;;;;;;;4955946;28;20078;-47
2023/02/20 09:14:09;;;;;;;3.88;0.80;;;;;;;;;;4970727;28;20051;-49
2023/02/20 09:16:35;;;;;;;2.83;0.90;;;;;;;;;;4972925;28;20031;-48
2023/02/20 09:19:01;;;;;;;2.78;0.60;;;;;;;;;;4970923;28;20110;-48
2023/02/20 09:21:28;;;;;;;0.75;0.65;;;;;;;;;;4972674;28;20051;-47
2023/02/20 09:23:54;;;;;;;2.15;0.85;;;;;;;;;;4970047;28;20026;-47
2023/02/20 09:26:20;;;;;;;1.75;0.63;;;;;;;;;;4972344;28;20031;-47
2023/02/20 09:28:46;;;;;;;0.85;0.50;;;;;;;;;;4970643;28;20038;-47
2023/02/20 09:31:12;;;;;;;0.95;0.60;;;;;;;;;;4971326;28;20379;-48
2023/02/20 09:33:38;;;;;;;3.13;0.70;;;;;;;;;;4971964;28;20038;-47
2023/02/20 09:36:04;;;;;;;2.00;0.77;;;;;;;;;;4970993;28;20031;-48
2023/02/20 09:38:30;;;;;;;2.83;1.10;;;;;;;;;;4964231;28;20096;-48
2023/02/20 09:40:57;;;;;;;0.88;0.60;;;;;;;;;;4970516;28;20101;-47
2023/02/20 09:43:23;;;;;;;1.05;0.50;;;;;;;;;;4971401;28;20031;-47
2023/02/20 09:46:12;;;;;;;1.88;0.85;;;;;;;;;;4970825;28;20033;-47
2023/02/20 09:48:42;;;;;;;2.03;0.60;;;;;;;;;;4971922;28;20495;-47
2023/02/20 09:51:12;;;;;;;2.05;0.70;;;;;;;;;;4971306;28;20062;-49
2023/02/20 09:53:39;;;;;;;1.50;0.80;;;;;;;;;;4971525;28;20023;-48
2023/02/20 09:56:10;;;;;;;1.00;0.80;;;;;;;;;;4970574;28;20035;-49
2023/02/20 09:58:36;;;;;;;1.73;0.68;;;;;;;;;;4971571;28;20039;-47
2023/02/20 10:01:03;;;;;;;0.90;0.70;;;;;;;;;;4968070;28;20030;-47
2023/02/20 10:03:48;;;;;;;1.60;0.77;;;;;;;;;;4971490;28;20106;-48
2023/02/20 10:06:18;;;;;;;0.80;0.75;;;;;;;;;;4971130;28;20031;-48
2023/02/20 10:08:47;;;;;;;3.65;0.77;;;;;;;;;;4970063;28;20051;-47
2023/02/20 10:11:19;;;;;;;0.82;0.68;;;;;;;;;;4971495;28;20427;-50
2023/02/20 10:13:45;;;;;;;;;;;;;;;;;;4970541;28;20480;-50
2023/02/20 10:16:29;;;;;;;1.08;0.60;;;;;;;;;;4971489;28;19985;-51
2023/02/20 10:19:18;;;;;;;2.03;0.52;;;;;;;;;;4970853;28;20039;-47
2023/02/20 10:21:47;;;;;;;1.63;0.60;;;;;;;;;;4968453;28;20026;-48
2023/02/20 10:24:22;;;;;;;2.17;0.85;;;;;;;;;;4970908;28;20026;-47
2023/02/20 10:26:50;;;;;;;1.95;0.93;;;;;;;;;;4970678;28;20050;-47
2023/02/20 10:29:20;;;;;;;1.75;0.70;;;;;;;;;;4971123;28;20039;-49
2023/02/20 10:31:52;;;;;;;2.95;0.63;;;;;;;;;;4970493;28;20153;-48
2023/02/20 10:34:17;;;;;;;;;;;;;;;;;;4972094;28;20027;-48
2023/02/20 10:36:46;;;;;;;1.77;0.93;;;;;;;;;;4974072;28;19933;-54
2023/02/20 10:39:13;;;;;;;1.42;0.85;;;;;;;;;;4974051;28;20042;-51
2023/02/20 10:41:42;;;;;;;2.08;0.70;;;;;;;;;;4971249;28;20023;-47
2023/02/20 10:44:30;;;;;;;2.00;0.85;;;;;;;;;;4977235;28;20105;-49
2023/02/20 10:47:08;;;;;;;1.30;0.57;;;;;;;;;;4976193;28;20031;-49
2023/02/20 10:49:46;;;;;;;1.85;0.57;;;;;;;;;;4974017;28;20049;-47
2023/02/20 10:52:15;;;;;;;1.35;0.75;;;;;;;;;;4974978;28;20030;-51
2023/02/20 10:54:45;;;;;;;5.32;0.82;;;;;;;;;;4973753;28;20034;-47
2023/02/20 10:57:15;;;;;;;3.00;1.25;;;;;;;;;;4974202;28;20054;-52
2023/02/20 10:59:44;;;;;;;4.20;1.27;;;;;;;;;;4967140;28;20034;-48
2023/02/20 11:02:18;;;;;;;3.65;1.73;;;;;;;;;;4975730;28;20023;-49
2023/02/20 11:04:50;;;;;;;2.38;1.35;;;;;;;;;;4971575;28;20058;-50
2023/02/20 11:07:21;;;;;;;2.03;1.33;;;;;;;;;;4974945;28;20042;-53
2023/02/20 11:09:47;;;;;;;3.20;1.35;;;;;;;;;;4973262;28;20066;-53
2023/02/20 11:12:29;;;;;;;1.80;1.25;;;;;;;;;;4970488;28;20451;-51
2023/02/20 11:14:59;;;;;;;4.63;1.38;;;;;;;;;;4954679;29;20019;-48
2023/02/20 11:17:26;;;;;;;2.40;1.00;;;;;;;;;;4948836;28;20420;-52
2023/02/20 11:19:56;;;;;;;4.38;1.73;;;;;;;;;;4953889;29;20031;-49
2023/02/20 11:22:42;;;;;;;2.25;0.80;;;;;;;;;;4954370;29;20023;-49
2023/02/20 11:25:28;;;;;;;1.90;0.82;;;;;;;;;;4955140;29;20103;-52
2023/02/20 11:27:56;;;;;;;3.40;1.23;;;;;;;;;;4953617;29;20392;-50
2023/02/20 11:30:33;;;;;;;1.90;1.20;;;;;;;;;;4953880;29;20027;-49
2023/02/20 11:33:05;;;;;;;3.08;1.15;;;;;;;;;;4954124;28;20066;-51
2023/02/20 11:35:32;;;;;;;2.80;1.02;;;;;;;;;;4953854;29;20106;-48
2023/02/20 11:38:17;;;;;;;3.15;1.73;;;;;;;;;;4953832;29;20089;-52
2023/02/20 11:40:52;;;;;;;2.65;1.65;;;;;;;;;;4953423;28;20117;-48
2023/02/20 11:43:18;;;;;;;3.65;1.85;;;;;;;;;;4954290;29;20087;-50
2023/02/20 11:45:44;;;;;;;4.28;1.52;;;;;;;;;;4951912;28;20027;-53
2023/02/20 11:48:11;;;;;;;3.67;1.80;;;;;;;;;;4954889;29;20021;-52
2023/02/20 11:50:42;;;;;;;2.13;1.00;;;;;;;;;;4953522;29;20031;-51
2023/02/20 11:53:17;;;;;;;3.72;0.90;;;;;;;;;;4953673;28;20069;-48
2023/02/20 11:55:43;;;;;;;2.10;0.93;;;;;;;;;;4953140;29;20027;-51
2023/02/20 11:58:25;;;;;;;1.25;0.70;;;;;;;;;;4954572;29;20048;-52
2023/02/20 12:00:52;;;;;;;3.30;1.25;;;;;;;;;;4953437;28;20106;-49
2023/02/20 12:03:23;;;;;;;2.47;0.77;;;;;;;;;;4954263;29;20480;-49
2023/02/20 12:05:49;;;;;;;1.98;0.95;;;;;;;;;;4955082;28;20031;-49
2023/02/20 12:08:31;;;;;;;1.55;0.88;;;;;;;;;;4953424;29;20019;-47
2023/02/20 12:11:06;;;;;;;2.30;0.82;;;;;;;;;;4949493;29;20035;-48
2023/02/20 12:13:43;;;;;;;1.20;0.63;;;;;;;;;;4967604;28;20042;-48
2023/02/20 12:16:24;;;;;;;2.50;1.10;;;;;;;;;;4973350;28;20488;-48
2023/02/20 12:18:53;;;;;;;1.92;1.20;;;;;;;;;;4971906;28;20023;-48
2023/02/20 12:21:38;;;;;;;1.38;0.90;;;;;;;;;;4972804;28;20030;-48
2023/02/20 12:24:26;;;;;;;1.55;0.95;;;;;;;;;;4972025;28;20031;-49
2023/02/20 12:26:58;;;;;;;1.40;1.00;;;;;;;;;;4968049;28;20030;-49
2023/02/20 12:29:26;;;;;;;1.35;0.70;;;;;;;;;;4972322;28;20472;-49
2023/02/20 12:31:53;;;;;;;1.70;1.00;;;;;;;;;;4972124;28;20069;-48
2023/02/20 12:34:28;;;;;;;2.08;0.57;;;;;;;;;;4971513;28;20021;-48
2023/02/20 12:37:16;;;;;;;1.40;0.75;;;;;;;;;;4971828;28;20038;-49
2023/02/20 12:39:42;;;;;;;1.20;0.55;;;;;;;;;;4970870;28;20113;-47
2023/02/20 12:42:27;;;;;;;0.75;0.55;;;;;;;;;;4973109;28;20106;-49
2023/02/20 12:44:58;;;;;;;1.50;0.90;;;;;;;;;;4967453;28;20380;-52
2023/02/20 12:47:35;;;;;;;3.37;0.90;;;;;;;;;;4972984;28;20058;-49
2023/02/20 12:50:07;;;;;;;1.48;0.70;;;;;;;;;;4971074;28;20274;-49
2023/02/20 12:52:49;;;;;;;1.50;0.75;;;;;;;;;;4973254;28;20038;-49
2023/02/20 12:55:15;;;;;;;;;;;;;;;;;;4972379;28;20030;-47
2023/02/20 12:57:50;;;;;;;2.85;0.73;;;;;;;;;;4970279;28;19997;-47
2023/02/20 13:00:22;;;;;;;1.23;0.65;;;;;;;;;;4971492;28;20399;-48
2023/02/20 13:02:49;;;;;;;0.70;0.40;;;;;;;;;;4971270;28;20101;-47
2023/02/20 13:05:19;;;;;;;1.30;0.80;;;;;;;;;;4971190;28;20035;-48
2023/02/20 13:07:52;;;;;;;2.13;0.93;;;;;;;;;;4972441;28;20027;-47
2023/02/20 13:10:25;;;;;;;1.95;0.57;;;;;;;;;;4972099;28;20455;-50
2023/02/20 13:12:52;;;;;;;1.02;0.60;;;;;;;;;;4971346;28;20058;-47
2023/02/20 13:15:27;;;;;;;1.83;0.80;;;;;;;;;;4972359;28;20101;-47
2023/02/20 13:17:56;;;;;;;1.48;0.43;;;;;;;;;;4971539;28;20038;-48
2023/02/20 13:20:32;;;;;;;0.73;0.50;;;;;;;;;;4972033;28;20027;-49
2023/02/20 13:23:24;;;;;;;3.78;0.88;;;;;;;;;;4971557;28;20744;-49
2023/02/20 13:25:51;;;;;;;1.00;0.60;;;;;;;;;;4967064;28;20101;-49
2023/02/20 13:28:19;;;;;;;1.15;0.63;;;;;;;;;;4971657;28;20122;-51
2023/02/20 13:31:05;;;;;;;0.98;0.50;;;;;;;;;;4970528;28;20440;-51
2023/02/20 13:33:31;;;;;;;0.80;0.50;;;;;;;;;;4972002;28;20126;-51
2023/02/20 13:35:58;;;;;;;1.20;0.57;;;;;;;;;;4967428;28;20101;-52
2023/02/20 13:38:25;;;;;;;1.65;0.80;;;;;;;;;;4970652;28;20127;-50
2023/02/20 13:41:00;;;;;;;1.02;0.57;;;;;;;;;;4970280;28;20031;-49
2023/02/20 13:43:30;;;;;;;1.02;0.60;;;;;;;;;;4971328;28;20027;-51
2023/02/20 13:46:02;;;;;;;1.00;0.40;;;;;;;;;;4970155;28;20031;-47
2023/02/20 13:48:28;;;;;;;3.22;0.70;;;;;;;;;;4971667;28;20035;-48
2023/02/20 13:51:13;;;;;;;0.68;0.50;;;;;;;;;;4969974;28;20041;-48
2023/02/20 13:53:39;;;;;;;1.75;0.65;;;;;;;;;;4971257;28;20058;-48
2023/02/20 13:56:14;;;;;;;1.60;0.60;;;;;;;;;;4970730;28;20069;-49
2023/02/20 13:58:40;;;;;;;1.95;0.68;;;;;;;;;;4971434;28;20093;-48
2023/02/20 14:01:07;;;;;;;1.00;0.50;;;;;;;;;;4970941;28;20035;-49
2023/02/20 14:03:33;;;;;;;2.05;0.75;;;;;;;;;;4970944;28;20035;-51
2023/02/20 14:06:20;;;;;;;1.92;0.85;;;;;;;;;;4968788;28;20027;-48
2023/02/20 14:08:49;;;;;;;3.95;0.75;;;;;;;;;;4969643;28;20117;-49
2023/02/20 14:11:32;;;;;;;4.85;0.73;;;;;;;;;;4974227;28;20030;-52
2023/02/20 14:14:01;;;;;;;1.20;0.80;;;;;;;;;;4970690;28;20039;-51
2023/02/20 14:16:32;;;;;;;1.27;0.63;;;;;;;;;;4975220;28;20027;-51
2023/02/20 14:19:00;;;;;;;2.00;0.70;;;;;;;;;;4970913;28;20042;-50
2023/02/20 14:21:26;;;;;;;0.95;0.45;;;;;;;;;;4975089;28;20130;-51
2023/02/20 14:23:52;;;;;;;1.05;0.80;;;;;;;;;;4962428;28;20476;-49
2023/02/20 14:26:23;;;;;;;0.68;0.50;;;;;;;;;;4974673;28;20081;-48
2023/02/20 14:28:51;;;;;;;1.35;0.90;;;;;;;;;;4973636;28;20377;-49
2023/02/20 14:31:27;;;;;;;0.82;0.55;;;;;;;;;;4974496;28;20026;-50
2023/02/20 14:34:29;;;;;;;1.10;0.60;;;;;;;;;;4974066;28;20034;-49
2023/02/20 14:36:55;;;;;;;1.33;0.70;;;;;;;;;;4887655;29;20218;-50
2023/02/20 14:39:30;;;;;;;2.38;0.60;;;;;;;;;;4955856;28;20126;-47
2023/02/20 14:41:58;;;;;;;1.25;0.50;;;;;;;;;;4974203;28;20031;-47
2023/02/20 14:44:24;;;;;;;1.65;0.68;;;;;;;;;;4974180;28;20165;-48
2023/02/20 14:46:52;;;;;;;0.80;0.50;;;;;;;;;;4973202;28;20030;-48
2023/02/20 14:49:26;;;;;;;2.17;0.70;;;;;;;;;;4974187;28;20386;-48
2023/02/20 14:51:52;;;;;;;1.13;0.50;;;;;;;;;;4974232;28;20019;-53
2023/02/20 14:54:23;;;;;;;1.58;0.60;;;;;;;;;;4974249;28;20027;-49
2023/02/20 14:56:49;;;;;;;1.13;0.60;;;;;;;;;;4973082;28;20538;-50
2023/02/20 14:59:37;;;;;;;0.82;0.60;;;;;;;;;;4972567;28;20491;-52
2023/02/20 15:02:18;;;;;;;0.60;0.52;;;;;;;;;;4972971;28;20070;-49
2023/02/20 15:04:48;;;;;;;1.47;0.50;;;;;;;;;;4972637;28;20356;-49
2023/02/20 15:07:14;;;;;;;2.03;0.50;;;;;;;;;;4974755;28;20266;-53
2023/02/20 15:09:45;;;;;;;1.25;0.60;;;;;;;;;;4973931;28;20502;-47
2023/02/20 15:12:19;;;;;;;2.13;0.50;;;;;;;;;;4974633;28;20043;-49